Time;durP1;ratioP1;P1;durP2;ratioP2;P2;SDS_P1;SDS_P2;PMS_P1;PMS_P2;Temp;Humidity;BMP_temperature;BMP_pressure;BME280_temperature;BME280_humidity;BME280_pressure;Samples;Min_cycle;Max_cycle;Signal;HPM_P1;HPM_P2
2021/09/11 00:00:48;;;;;;;;;;;;;;;21.33;55.16;100909.50;5118856;27;1000;-56
2021/09/11 00:03:14;;;;;;;;;;;;;;;20.65;53.92;100916.31;5119446;28;837;-45
2021/09/11 00:05:39;;;;;;;;;;;;;;;19.88;52.36;100903.50;5118116;28;874;-55
2021/09/11 00:08:05;;;;;;;;;;;;;;;19.37;50.09;100899.28;5119337;28;858;-55
2021/09/11 00:10:30;;;;;;;;;;;;;;;18.79;48.80;100896.09;5118908;28;1133;-55
2021/09/11 00:12:56;;;;;;;;;;;;;;;18.75;48.41;100894.22;5118925;28;814;-55
2021/09/11 00:15:22;;;;;;;;;;;;;;;19.29;50.35;100898.81;5118648;27;1898;-46
2021/09/11 00:17:47;;;;;;;;;;;;;;;19.67;52.82;100887.16;5119216;28;807;-55
2021/09/11 00:20:13;;;;;;;;;;;;;;;19.95;54.64;100890.16;5119235;28;875;-55
2021/09/11 00:22:38;;;;;;;;;;;;;;;20.16;55.80;100894.34;5136973;27;1620;-55
2021/09/11 00:25:04;;;;;;;;;;;;;;;20.55;56.21;100888.84;5139421;27;911;-54
2021/09/11 00:27:29;;;;;;;;;;;;;;;20.74;56.48;100886.94;5138397;27;1191;-53
2021/09/11 00:29:55;;;;;;;;;;;;;;;20.77;56.97;100886.34;5125371;27;972;-50
2021/09/11 00:32:20;;;;;;;;;;;;;;;21.00;57.03;100884.63;5118427;28;811;-45
2021/09/11 00:34:46;;;;;;;;;;;;;;;21.39;56.08;100888.09;5118924;28;1909;-52
2021/09/11 00:37:11;;;;;;;;;;;;;;;21.40;56.58;100886.97;5118420;28;783;-45
2021/09/11 00:39:37;;;;;;;;;;;;;;;21.39;56.80;100881.75;5118429;28;798;-52
2021/09/11 00:42:02;;;;;;;;;;;;;;;21.74;55.96;100877.56;5118916;28;783;-54
2021/09/11 00:44:28;;;;;;;;;;;;;;;21.65;56.25;100871.09;5118151;27;965;-45
2021/09/11 00:46:53;;;;;;;;;;;;;;;21.26;56.86;100880.59;5118680;28;739;-53
2021/09/11 00:49:19;;;;;;;;;;;;;;;21.05;54.98;100869.88;5118418;28;759;-54
2021/09/11 00:51:44;;;;;;;;;;;;;;;20.55;53.39;100873.09;5118207;28;811;-53
2021/09/11 00:54:10;;;;;;;;;;;;;;;19.97;52.26;100874.13;5117387;28;1917;-54
2021/09/11 00:56:36;;;;;;;;;;;;;;;19.57;50.91;100882.56;5117278;28;819;-55
2021/09/11 00:59:01;;;;;;;;;;;;;;;19.30;50.21;100877.56;5117495;27;1008;-49
2021/09/11 01:01:27;;;;;;;;;;;;;;;19.13;49.64;100878.78;5118396;28;877;-54
2021/09/11 01:03:53;;;;;;;;;;;;;;;19.23;49.96;100883.41;5117982;28;858;-51
2021/09/11 01:06:18;;;;;;;;;;;;;;;19.28;50.70;100883.38;5118174;28;775;-54
2021/09/11 01:08:44;;;;;;;;;;;;;;;19.45;51.28;100880.16;5118388;28;973;-55
2021/09/11 01:11:09;;;;;;;;;;;;;;;19.43;52.42;100871.38;5116560;28;791;-56
2021/09/11 01:13:35;;;;;;;;;;;;;;;19.63;52.53;100872.28;5117476;27;1984;-44
2021/09/11 01:16:00;;;;;;;;;;;;;;;19.40;53.82;100866.41;5118005;27;779;-52
2021/09/11 01:18:26;;;;;;;;;;;;;;;19.44;53.75;100867.50;5117854;28;875;-54
2021/09/11 01:20:51;;;;;;;;;;;;;;;19.86;53.82;100862.41;5120545;27;1593;-51
2021/09/11 01:23:17;;;;;;;;;;;;;;;19.99;55.20;100872.72;5138472;27;767;-45
2021/09/11 01:25:42;;;;;;;;;;;;;;;20.32;55.85;100869.28;5139060;27;834;-51
2021/09/11 01:28:07;;;;;;;;;;;;;;;20.43;56.54;100870.78;5138507;27;787;-52
2021/09/11 01:30:33;;;;;;;;;;;;;;;20.56;56.86;100871.16;5119453;27;965;-53
2021/09/11 01:32:58;;;;;;;;;;;;;;;20.98;56.14;100863.91;5117742;28;803;-55
2021/09/11 01:35:24;;;;;;;;;;;;;;;21.16;56.08;100865.00;5117355;28;1968;-50
2021/09/11 01:37:49;;;;;;;;;;;;;;;21.13;56.54;100871.97;5117699;27;550;-55
2021/09/11 01:40:15;;;;;;;;;;;;;;;21.06;57.02;100867.97;5117334;28;815;-55
2021/09/11 01:42:40;;;;;;;;;;;;;;;20.97;57.54;100868.63;5117124;28;791;-55
2021/09/11 01:45:09;;;;;;;;;;;;;;;21.46;56.17;100869.19;5116289;27;1020;-45
2021/09/11 01:47:34;;;;;;;;;;;;;;;21.60;55.91;100868.41;5117486;28;759;-45
2021/09/11 01:50:00;;;;;;;;;;;;;;;21.46;56.34;100873.88;5117106;28;907;-50
2021/09/11 01:52:26;;;;;;;;;;;;;;;21.20;56.36;100866.84;5117177;28;790;-44
2021/09/11 01:54:51;;;;;;;;;;;;;;;21.14;55.30;100868.06;5116934;28;1976;-54
2021/09/11 01:57:16;;;;;;;;;;;;;;;20.71;55.43;100867.41;5117082;28;835;-56
2021/09/11 01:59:42;;;;;;;;;;;;;;;20.61;54.33;100869.16;5116896;27;1008;-55
2021/09/11 02:02:08;;;;;;;;;;;;;;;20.12;54.64;100865.66;5117369;28;775;-55
2021/09/11 02:04:33;;;;;;;;;;;;;;;20.10;53.93;100867.88;5116984;28;811;-55
2021/09/11 02:06:59;;;;;;;;;;;;;;;19.95;53.64;100868.91;5116865;28;811;-55
2021/09/11 02:09:24;;;;;;;;;;;;;;;19.92;53.53;100869.50;5117111;28;1129;-55
2021/09/11 02:11:50;;;;;;;;;;;;;;;19.90;52.71;100876.44;5116799;28;795;-57
2021/09/11 02:14:15;;;;;;;;;;;;;;;19.82;52.64;100877.88;5116260;27;1914;-55
2021/09/11 02:16:41;;;;;;;;;;;;;;;19.82;52.36;100877.88;5117358;28;796;-54
2021/09/11 02:19:06;;;;;;;;;;;;;;;19.51;52.84;100880.13;5116588;28;518;-56
2021/09/11 02:21:32;;;;;;;;;;;;;;;19.43;52.70;100882.41;5125034;27;1780;-46
2021/09/11 02:23:57;;;;;;;;;;;;;;;19.65;52.18;100883.84;5137459;27;932;-56
2021/09/11 02:26:23;;;;;;;;;;;;;;;19.57;53.66;100881.72;5136957;27;786;-54
2021/09/11 02:28:48;;;;;;;;;;;;;;;19.85;54.31;100879.25;5133094;27;1012;-56
2021/09/11 02:31:14;;;;;;;;;;;;;;;20.35;54.71;100893.53;5116669;28;751;-49
2021/09/11 02:33:41;;;;;;;;;;;;;;;20.48;55.52;100890.06;5116244;28;1977;-53
2021/09/11 02:36:07;;;;;;;;;;;;;;;20.96;54.97;100891.06;5116550;28;786;-45
2021/09/11 02:38:32;;;;;;;;;;;;;;;20.81;56.29;100898.44;5116872;28;803;-43
2021/09/11 02:40:57;;;;;;;;;;;;;;;21.15;55.85;100897.38;5116312;28;763;-55
2021/09/11 02:43:23;;;;;;;;;;;;;;;21.39;55.46;100899.16;5116106;27;953;-48
2021/09/11 02:45:48;;;;;;;;;;;;;;;21.40;55.76;100897.25;5116771;27;929;-53
2021/09/11 02:48:14;;;;;;;;;;;;;;;21.43;55.83;100900.19;5140172;27;816;-55
2021/09/11 02:50:39;;;;;;;;;;;;;;;21.51;55.62;100899.50;5148759;27;1101;-54
2021/09/11 02:53:05;;;;;;;;;;;;;;;21.32;55.69;100896.81;5137045;27;810;-54
2021/09/11 02:55:30;;;;;;;;;;;;;;;20.54;54.54;100892.72;5136451;27;1913;-54
2021/09/11 02:57:55;;;;;;;;;;;;;;;19.90;52.63;100891.03;5136769;27;739;-46
2021/09/11 03:00:21;;;;;;;;;;;;;;;19.29;50.59;100887.78;5119650;27;964;-57
2021/09/11 03:02:46;;;;;;;;;;;;;;;18.89;48.50;100883.41;5116076;28;772;-56
2021/09/11 03:05:12;;;;;;;;;;;;;;;18.78;48.60;100888.13;5115911;28;811;-46
2021/09/11 03:07:37;;;;;;;;;;;;;;;19.30;50.81;100891.34;5116339;28;1020;-56
2021/09/11 03:10:03;;;;;;;;;;;;;;;19.81;52.62;100882.59;5115794;28;1050;-56
2021/09/11 03:12:28;;;;;;;;;;;;;;;20.05;54.54;100884.53;5115793;28;798;-55
2021/09/11 03:14:54;;;;;;;;;;;;;;;20.28;55.38;100891.13;5115972;27;1909;-55
2021/09/11 03:17:19;;;;;;;;;;;;;;;20.51;55.99;100883.13;5115953;28;851;-57
2021/09/11 03:19:45;;;;;;;;;;;;;;;20.84;55.99;100874.91;5116036;28;764;-56
2021/09/11 03:22:10;;;;;;;;;;;;;;;20.73;56.97;100888.06;5130413;28;1569;-57
2021/09/11 03:24:35;;;;;;;;;;;;;;;21.02;56.59;100887.88;5136364;27;815;-56
2021/09/11 03:27:01;;;;;;;;;;;;;;;21.16;56.52;100879.66;5136455;27;522;-56
2021/09/11 03:29:26;;;;;;;;;;;;;;;21.40;55.89;100889.75;5127018;27;956;-44
2021/09/11 03:31:52;;;;;;;;;;;;;;;21.51;55.81;100887.63;5115843;28;945;-46
2021/09/11 03:34:17;;;;;;;;;;;;;;;21.50;55.84;100878.53;5115530;28;1971;-44
2021/09/11 03:36:43;;;;;;;;;;;;;;;21.61;55.51;100879.16;5116109;28;827;-50
2021/09/11 03:39:08;;;;;;;;;;;;;;;21.74;55.41;100880.31;5115419;28;843;-49
2021/09/11 03:41:33;;;;;;;;;;;;;;;21.50;55.56;100877.69;5115684;28;831;-58
2021/09/11 03:43:59;;;;;;;;;;;;;;;21.18;54.30;100888.47;5115480;27;965;-56
2021/09/11 03:46:24;;;;;;;;;;;;;;;20.31;53.16;100889.72;5116109;28;779;-53
2021/09/11 03:48:50;;;;;;;;;;;;;;;19.69;50.88;100882.16;5115386;28;799;-56
2021/09/11 03:51:15;;;;;;;;;;;;;;;19.02;49.41;100882.75;5115521;28;503;-56
2021/09/11 03:53:41;;;;;;;;;;;;;;;18.87;47.26;100874.56;5140528;27;1925;-60
2021/09/11 03:56:06;;;;;;;;;;;;;;;18.33;48.24;100885.38;5147098;27;1469;-47
2021/09/11 03:58:33;;;;;;;;;;;;;;;18.87;51.25;100880.06;5147362;27;1283;-49
2021/09/11 04:01:01;;;;;;;;;;;;;;;19.17;53.84;100883.72;5145288;27;1329;-56
2021/09/11 04:03:26;;;;;;;;;;;;;;;19.65;55.07;100894.88;5149364;27;1390;-58
2021/09/11 04:05:52;;;;;;;;;;;;;;;20.07;55.86;100898.03;5146201;27;1529;-44
2021/09/11 04:08:17;;;;;;;;;;;;;;;20.24;56.61;100892.03;5147134;27;1333;-57
2021/09/11 04:10:43;;;;;;;;;;;;;;;20.35;57.17;100896.31;5147742;27;1480;-43
2021/09/11 04:13:08;;;;;;;;;;;;;;;20.65;56.79;100894.22;5151732;27;763;-44
2021/09/11 04:15:33;;;;;;;;;;;;;;;20.81;57.12;100897.63;5142647;27;1905;-49
2021/09/11 04:17:59;;;;;;;;;;;;;;;20.99;56.84;100894.03;5144555;27;1414;-58
2021/09/11 04:20:25;;;;;;;;;;;;;;;21.10;56.62;100891.94;5152666;27;1381;-58
2021/09/11 04:22:50;;;;;;;;;;;;;;;21.46;55.63;100896.84;5154179;27;1496;-57
2021/09/11 04:25:16;;;;;;;;;;;;;;;21.52;55.32;100894.84;5151132;27;1485;-44
2021/09/11 04:27:41;;;;;;;;;;;;;;;21.33;55.89;100903.97;5159800;27;778;-43
2021/09/11 04:30:07;;;;;;;;;;;;;;;21.22;56.01;100896.97;5140166;27;1528;-43
2021/09/11 04:32:32;;;;;;;;;;;;;;;20.98;55.07;100897.09;5146647;27;1365;-43
2021/09/11 04:34:58;;;;;;;;;;;;;;;20.30;54.38;100899.13;5155028;27;1970;-44
2021/09/11 04:37:24;;;;;;;;;;;;;;;19.98;53.17;100903.41;5139863;27;863;-47
2021/09/11 04:39:49;;;;;;;;;;;;;;;19.37;52.43;100897.34;5139285;27;882;-45
2021/09/11 04:42:15;;;;;;;;;;;;;;;19.18;51.25;100901.91;5153403;27;790;-44
2021/09/11 04:44:40;;;;;;;;;;;;;;;19.05;51.15;100903.41;5128122;27;956;-57
2021/09/11 04:47:06;;;;;;;;;;;;;;;19.25;52.73;100908.75;5118362;28;775;-53
2021/09/11 04:49:31;;;;;;;;;;;;;;;19.51;54.54;100910.47;5118649;28;781;-56
2021/09/11 04:51:57;;;;;;;;;;;;;;;19.92;55.40;100913.66;5120196;27;960;-53
2021/09/11 04:54:22;;;;;;;;;;;;;;;20.11;56.37;100913.72;5138415;27;1961;-44
2021/09/11 04:56:47;;;;;;;;;;;;;;;20.31;56.62;100917.34;5138152;27;862;-59
2021/09/11 04:59:13;;;;;;;;;;;;;;;20.51;56.79;100927.31;5131241;27;913;-46
2021/09/11 05:01:38;;;;;;;;;;;;;;;20.60;57.08;100921.94;5118473;28;771;-49
2021/09/11 05:04:04;;;;;;;;;;;;;;;20.84;56.56;100914.41;5118026;28;812;-45
2021/09/11 05:06:30;;;;;;;;;;;;;;;21.00;56.33;100919.75;5126460;27;1528;-45
2021/09/11 05:08:55;;;;;;;;;;;;;;;21.12;56.14;100920.09;5142383;27;1413;-43
2021/09/11 05:11:21;;;;;;;;;;;;;;;21.45;55.07;100922.88;5155794;27;1315;-48
2021/09/11 05:13:46;;;;;;;;;;;;;;;21.46;55.20;100918.16;5143658;27;1937;-53
2021/09/11 05:16:11;;;;;;;;;;;;;;;21.50;54.96;100922.78;5143789;27;1473;-48
2021/09/11 05:18:37;;;;;;;;;;;;;;;20.73;56.26;100914.88;5139208;27;818;-54
2021/09/11 05:21:03;;;;;;;;;;;;;;;20.38;54.92;100922.50;5134794;27;1315;-50
2021/09/11 05:23:29;;;;;;;;;;;;;;;20.10;53.34;100922.28;5138246;27;850;-53
2021/09/11 05:25:54;;;;;;;;;;;;;;;19.57;52.13;100904.63;5137971;27;815;-56
2021/09/11 05:28:20;;;;;;;;;;;;;;;19.11;50.98;100913.25;5145230;27;1379;-51
2021/09/11 05:30:45;;;;;;;;;;;;;;;19.03;49.91;100911.13;5135757;27;947;-42
2021/09/11 05:33:11;;;;;;;;;;;;;;;18.85;50.28;100915.38;5143159;27;1449;-43
2021/09/11 05:35:37;;;;;;;;;;;;;;;18.81;51.10;100913.16;5140463;27;1976;-55
2021/09/11 05:38:03;;;;;;;;;;;;;;;19.05;52.90;100918.00;5147734;27;1496;-52
2021/09/11 05:40:29;;;;;;;;;;;;;;;19.48;54.31;100918.19;5142171;27;1337;-57
2021/09/11 05:42:56;;;;;;;;;;;;;;;19.86;55.53;100922.28;5147027;27;796;-45
2021/09/11 05:45:22;;;;;;;;;;;;;;;20.38;55.51;100926.09;5145867;27;1120;-53
2021/09/11 05:47:49;;;;;;;;;;;;;;;20.57;55.90;100925.31;5136536;27;858;-44
2021/09/11 05:50:15;;;;;;;;;;;;;;;20.90;55.87;100926.25;5118911;27;856;-57
2021/09/11 05:52:42;;;;;;;;;;;;;;;21.19;55.30;100925.22;5137916;27;1386;-44
2021/09/11 05:55:08;;;;;;;;;;;;;;;20.98;56.36;100927.50;5138688;27;1972;-44
2021/09/11 05:57:33;;;;;;;;;;;;;;;21.30;55.83;100932.22;5137994;27;807;-56
2021/09/11 06:00:00;;;;;;;;;;;;;;;21.49;55.19;100925.84;5134939;27;957;-45
2021/09/11 06:02:25;;;;;;;;;;;;;;;21.34;55.82;100926.94;5145191;27;1394;-41
2021/09/11 06:04:51;;;;;;;;;;;;;;;21.43;55.44;100924.28;5144159;27;1346;-57
2021/09/11 06:07:16;;;;;;;;;;;;;;;21.26;55.72;100924.84;5138609;27;1379;-55
2021/09/11 06:09:42;;;;;;;;;;;;;;;20.78;54.92;100926.69;5146570;27;1263;-45
2021/09/11 06:12:10;;;;;;;;;;;;;;;20.18;53.06;100927.97;5125031;27;1398;-44
2021/09/11 06:14:38;;;;;;;;;;;;;;;19.39;51.59;100919.09;5140793;27;1917;-54
2021/09/11 06:17:06;;;;;;;;;;;;;;;18.80;49.77;100914.28;5145312;27;1531;-44
2021/09/11 06:19:32;;;;;;;;;;;;;;;18.41;49.11;100916.97;5144907;27;1548;-55
2021/09/11 06:21:57;;;;;;;;;;;;;;;18.73;50.90;100916.56;5152222;27;1445;-43
2021/09/11 06:24:23;;;;;;;;;;;;;;;19.15;53.78;100912.44;5142759;27;1444;-43
2021/09/11 06:26:48;;;;;;;;;;;;;;;19.66;54.88;100907.56;5143314;27;1341;-57
2021/09/11 06:29:14;;;;;;;;;;;;;;;20.03;55.73;100905.25;5140354;27;1267;-44
2021/09/11 06:31:39;;;;;;;;;;;;;;;20.31;56.00;100907.13;5141242;27;1445;-58
2021/09/11 06:34:05;;;;;;;;;;;;;;;20.46;56.60;100906.09;5150702;27;1905;-57
2021/09/11 06:36:30;;;;;;;;;;;;;;;20.61;56.76;100907.03;5137901;27;1520;-57
2021/09/11 06:38:55;;;;;;;;;;;;;;;20.88;56.71;100908.31;5135636;27;1363;-56
2021/09/11 06:41:21;;;;;;;;;;;;;;;21.08;56.34;100907.16;5137200;27;818;-57
2021/09/11 06:43:46;;;;;;;;;;;;;;;21.22;56.07;100905.25;5133620;27;909;-54
2021/09/11 06:46:12;;;;;;;;;;;;;;;21.17;56.45;100900.66;5138111;27;1355;-48
2021/09/11 06:48:37;;;;;;;;;;;;;;;21.52;55.21;100911.44;5142500;27;1239;-58
2021/09/11 06:51:03;;;;;;;;;;;;;;;21.33;55.79;100903.16;5140325;27;1504;-59
2021/09/11 06:53:28;;;;;;;;;;;;;;;20.77;56.35;100905.69;5136540;27;1484;-45
2021/09/11 06:55:54;;;;;;;;;;;;;;;20.14;55.06;100902.06;5136182;27;1984;-57
2021/09/11 06:58:19;;;;;;;;;;;;;;;19.71;52.93;100903.91;5142693;27;1556;-48
2021/09/11 07:00:44;;;;;;;;;;;;;;;19.09;50.81;100893.44;5135024;27;1132;-54
2021/09/11 07:03:10;;;;;;;;;;;;;;;18.68;49.37;100891.78;5141069;27;1501;-42
2021/09/11 07:05:35;;;;;;;;;;;;;;;18.43;48.01;100898.25;5143439;27;1418;-43
2021/09/11 07:08:01;;;;;;;;;;;;;;;18.35;50.30;100896.09;5138129;27;1339;-52
2021/09/11 07:10:26;;;;;;;;;;;;;;;19.12;53.31;100893.69;5148945;27;1263;-47
2021/09/11 07:12:52;;;;;;;;;;;;;;;19.55;55.43;100892.22;5142721;27;1547;-51
2021/09/11 07:15:17;;;;;;;;;;;;;;;19.83;56.99;100890.59;5133418;27;1909;-54
2021/09/11 07:17:43;;;;;;;;;;;;;;;20.36;56.37;100903.47;5152359;27;1425;-42
2021/09/11 07:20:08;;;;;;;;;;;;;;;20.48;57.15;100901.09;5151431;27;1333;-49
2021/09/11 07:22:34;;;;;;;;;;;;;;;20.61;57.33;100899.53;5154081;27;1631;-44
2021/09/11 07:24:59;;;;;;;;;;;;;;;20.82;57.04;100904.81;5157615;27;787;-56
2021/09/11 07:27:25;;;;;;;;;;;;;;;20.95;56.98;100906.00;5157106;27;798;-51
2021/09/11 07:29:50;;;;;;;;;;;;;;;21.08;56.65;100905.22;5131684;27;920;-56
2021/09/11 07:32:16;;;;;;;;;;;;;;;21.27;56.07;100896.09;5124456;28;823;-45
2021/09/11 07:34:41;;;;;;;;;;;;;;;21.10;56.63;100902.97;5141653;27;1978;-55
2021/09/11 07:37:07;;;;;;;;;;;;;;;21.26;56.08;100897.19;5144637;27;1255;-44
2021/09/11 07:39:32;;;;;;;;;;;;;;;21.46;55.26;100885.78;5149492;27;1402;-43
2021/09/11 07:41:58;;;;;;;;;;;;;;;21.14;55.61;100895.72;5148001;27;1475;-49
2021/09/11 07:44:23;;;;;;;;;;;;;;;20.26;55.14;100892.53;5143156;27;1481;-59
2021/09/11 07:46:49;;;;;;;;;;;;;;;19.75;53.22;100892.00;5141631;27;1390;-59
2021/09/11 07:49:14;;;;;;;;;;;;;;;19.41;50.89;100894.84;5145640;27;1497;-58
2021/09/11 07:51:40;;;;;;;;;;;;;;;18.78;49.87;100894.47;5152759;27;1460;-58
2021/09/11 07:54:06;;;;;;;;;;;;;;;18.59;48.42;100885.22;5150244;27;1984;-55
2021/09/11 07:56:31;;;;;;;;;;;;;;;18.50;50.09;100887.75;5145870;27;1190;-48
2021/09/11 07:58:57;;;;;;;;;;;;;;;19.21;53.12;100884.78;5144340;27;1405;-58
2021/09/11 08:01:22;;;;;;;;;;;;;;;19.54;55.56;100876.78;5149767;27;1252;-54
2021/09/11 08:03:48;;;;;;;;;;;;;;;20.28;55.57;100885.63;5147893;27;1247;-56
2021/09/11 08:06:13;;;;;;;;;;;;;;;20.35;56.99;100876.97;5159155;27;1386;-49
2021/09/11 08:08:39;;;;;;;;;;;;;;;20.48;57.23;100875.41;5144777;27;834;-51
2021/09/11 08:11:06;;;;;;;;;;;;;;;20.49;57.97;100875.09;5155197;27;1521;-45
2021/09/11 08:13:32;;;;;;;;;;;;;;;21.05;56.43;100867.13;5148088;27;1497;-60
2021/09/11 08:15:57;;;;;;;;;;;;;;;21.07;56.60;100859.34;5148433;27;1968;-52
2021/09/11 08:18:24;;;;;;;;;;;;;;;21.34;56.04;100866.09;5147951;27;1214;-51
2021/09/11 08:20:50;;;;;;;;;;;;;;;21.24;56.23;100866.25;5145488;27;1279;-51
2021/09/11 08:23:18;;;;;;;;;;;;;;;21.58;54.99;100860.41;5154170;27;1382;-46
2021/09/11 08:25:45;;;;;;;;;;;;;;;21.08;55.92;100860.97;5151499;27;1404;-44
2021/09/11 08:28:11;;;;;;;;;;;;;;;20.38;55.30;100857.03;5150223;27;1335;-52
2021/09/11 08:30:37;;;;;;;;;;;;;;;20.04;52.90;100858.03;5145479;27;1350;-52
2021/09/11 08:33:03;;;;;;;;;;;;;;;19.44;51.08;100844.63;5143431;27;1362;-58
2021/09/11 08:35:28;;;;;;;;;;;;;;;18.90;49.76;100846.47;5148946;27;1968;-59
2021/09/11 08:37:54;;;;;;;;;;;;;;;18.53;48.46;100847.81;5146316;27;810;-46
2021/09/11 08:40:21;;;;;;;;;;;;;;;18.36;48.18;100828.91;5139804;27;466;-52
2021/09/11 08:42:46;;;;;;;;;;;;;;;18.49;51.08;100830.22;5146955;27;1369;-45
2021/09/11 08:45:12;;;;;;;;;;;;;;;19.34;54.50;100834.50;5124752;27;996;-44
2021/09/11 08:47:41;;;;;;;;;;;;;;;19.96;56.40;100833.84;5147401;27;1275;-54
2021/09/11 08:50:06;;;;;;;;;;;;;;;20.59;55.99;100826.38;5149746;27;1377;-56
2021/09/11 08:52:33;;;;;;;;;;;;;;;21.01;56.19;100835.66;5156492;27;1318;-51
2021/09/11 08:54:58;;;;;;;;;;;;;;;20.93;57.07;100822.53;5149705;27;1906;-55
2021/09/11 08:57:25;;;;;;;;;;;;;;;21.09;56.66;100821.16;5137745;27;751;-57
2021/09/11 08:59:51;;;;;;;;;;;;;;;21.57;55.27;100825.56;5131442;27;1136;-55
2021/09/11 09:02:17;;;;;;;;;;;;;;;21.24;56.24;100808.16;5141830;27;1504;-51
2021/09/11 09:04:43;;;;;;;;;;;;;;;21.40;55.75;100819.78;5148378;27;1560;-55
2021/09/11 09:07:08;;;;;;;;;;;;;;;21.41;55.38;100816.72;5148333;27;1267;-44
2021/09/11 09:09:38;;;;;;;;;;;;;;;21.05;55.61;100816.53;5146107;27;1242;-45
2021/09/11 09:12:10;;;;;;;;;;;;;;;20.41;54.16;100808.69;5148214;27;854;-50
2021/09/11 09:14:35;;;;;;;;;;;;;;;19.61;52.96;100806.34;5133036;27;1971;-53
2021/09/11 09:17:08;;;;;;;;;;;;;;;19.08;51.33;100804.44;5122960;27;1426;-45
2021/09/11 09:19:34;;;;;;;;;;;;;;;18.66;49.71;100813.28;5146613;27;1365;-61
2021/09/11 09:22:01;;;;;;;;;;;;;;;18.37;49.20;100805.75;5139091;27;1378;-59
2021/09/11 09:24:27;;;;;;;;;;;;;;;18.33;49.17;100796.44;5135830;27;1356;-61
2021/09/11 09:26:53;;;;;;;;;;;;;;;18.40;49.95;100807.97;5128183;27;1490;-53
2021/09/11 09:29:18;;;;;;;;;;;;;;;18.84;53.08;100809.03;5140585;27;894;-50
2021/09/11 09:31:44;;;;;;;;;;;;;;;19.41;55.73;100817.63;5145740;27;979;-51
2021/09/11 09:34:10;;;;;;;;;;;;;;;20.14;55.93;100813.72;5157891;27;1974;-45
2021/09/11 09:36:36;;;;;;;;;;;;;;;20.51;56.27;100809.34;5156551;27;889;-62
2021/09/11 09:39:03;;;;;;;;;;;;;;;20.68;56.98;100799.75;5138424;27;886;-57
2021/09/11 09:41:48;;;;;;;;;;;;;;;20.84;57.30;100801.09;5138316;27;790;-62
2021/09/11 09:44:14;;;;;;;;;;;;;;;21.13;56.91;100791.78;5130465;27;1492;-46
2021/09/11 09:46:40;;;;;;;;;;;;;;;20.99;57.46;100788.97;5118098;28;779;-63
2021/09/11 09:49:06;;;;;;;;;;;;;;;21.34;56.27;100783.09;5117676;28;823;-54
2021/09/11 09:51:32;;;;;;;;;;;;;;;21.58;55.56;100777.41;5137210;27;878;-60
2021/09/11 09:53:57;;;;;;;;;;;;;;;21.44;55.59;100780.13;5138319;27;1976;-57
2021/09/11 09:56:23;;;;;;;;;;;;;;;21.19;55.90;100779.47;5136951;27;841;-51
2021/09/11 09:58:48;;;;;;;;;;;;;;;20.45;55.08;100774.63;5132378;27;930;-52
2021/09/11 10:01:14;;;;;;;;;;;;;;;19.85;53.35;100774.38;5116089;28;872;-56
2021/09/11 10:03:39;;;;;;;;;;;;;;;19.38;51.17;100765.84;5113615;27;1018;-54
2021/09/11 10:06:05;;;;;;;;;;;;;;;19.00;49.79;100772.00;5137000;27;803;-46
2021/09/11 10:08:30;;;;;;;;;;;;;;;18.50;49.19;100776.78;5138423;27;1458;-58
2021/09/11 10:10:56;;;;;;;;;;;;;;;18.41;49.46;100774.66;5141608;27;1118;-44
2021/09/11 10:13:26;;;;;;;;;;;;;;;18.93;52.74;100774.28;5150068;27;1101;-57
2021/09/11 10:15:55;;;;;;;;;;;;;;;19.68;55.10;100786.69;5136991;27;1974;-56
2021/09/11 10:18:39;;;;;;;;;;;;;;;20.33;55.51;100777.84;5119112;27;891;-56
2021/09/11 10:21:14;;;;;;;;;;;;;;;20.61;56.27;100771.66;5132312;27;1576;-57
2021/09/11 10:23:40;;;;;;;;;;;;;;;20.91;56.73;100769.50;5121845;27;803;-56
2021/09/11 10:26:06;;;;;;;;;;;;;;;21.16;56.52;100766.28;5137711;27;755;-56
2021/09/11 10:28:31;;;;;;;;;;;;;;;21.52;55.71;100759.28;5134850;27;823;-58
2021/09/11 10:31:06;;;;;;;;;;;;;;;21.53;55.93;100756.19;5116685;28;782;-49
2021/09/11 10:33:41;;;;;;;;;;;;;;;21.13;56.85;100755.03;5116927;28;851;-57
2021/09/11 10:36:11;;;;;;;;;;;;;;;20.65;56.30;100761.59;5116763;28;1981;-56
2021/09/11 10:38:37;;;;;;;;;;;;;;;20.17;54.39;100754.34;5116848;28;878;-44
2021/09/11 10:41:06;;;;;;;;;;;;;;;19.59;52.35;100755.38;5122516;27;828;-44
2021/09/11 10:43:32;;;;;;;;;;;;;;;19.32;50.66;100754.84;5135442;27;953;-61
2021/09/11 10:45:59;;;;;;;;;;;;;;;18.77;49.43;100751.50;5128683;27;1553;-44
2021/09/11 10:48:39;;;;;;;;;;;;;;;18.44;48.67;100757.56;5142647;27;1497;-61
2021/09/11 10:51:28;;;;;;;;;;;;;;;18.81;52.13;100745.13;5153214;27;902;-61
2021/09/11 10:53:57;;;;;;;;;;;;;;;19.72;55.68;100743.59;5150199;27;916;-62
2021/09/11 10:56:27;;;;;;;;;;;;;;;20.49;56.29;100748.03;5137007;27;826;-59
2021/09/11 10:59:11;;;;;;;;;;;;;;;20.62;57.39;100740.13;5135105;27;1318;-58
2021/09/11 11:01:55;;;;;;;;;;;;;;;21.13;56.92;100733.72;5128126;27;1325;-55
2021/09/11 11:04:24;;;;;;;;;;;;;;;21.12;56.98;100737.59;5133778;27;1219;-60
2021/09/11 11:06:51;;;;;;;;;;;;;;;21.45;56.46;100740.28;5137854;27;1183;-60
2021/09/11 11:09:18;;;;;;;;;;;;;;;21.66;55.70;100735.19;5127916;27;1057;-59
2021/09/11 11:11:44;;;;;;;;;;;;;;;21.42;55.96;100729.00;5125869;27;1148;-47
2021/09/11 11:14:09;;;;;;;;;;;;;;;20.95;56.14;100727.13;5125931;27;1984;-58
2021/09/11 11:16:45;;;;;;;;;;;;;;;20.40;55.31;100727.78;5127488;27;1292;-58
2021/09/11 11:19:10;;;;;;;;;;;;;;;19.69;53.55;100719.38;5132303;27;1279;-42
2021/09/11 11:21:36;;;;;;;;;;;;;;;19.34;51.63;100718.72;5137758;27;1321;-57
2021/09/11 11:24:02;;;;;;;;;;;;;;;19.01;49.95;100715.75;5143745;27;795;-58
2021/09/11 11:26:27;;;;;;;;;;;;;;;18.68;48.71;100722.91;5145029;27;1419;-49
2021/09/11 11:28:52;;;;;;;;;;;;;;;18.44;49.19;100719.00;5147770;27;1539;-55
2021/09/11 11:31:18;;;;;;;;;;;;;;;18.51;51.24;100720.59;5151997;27;1362;-57
2021/09/11 11:33:44;;;;;;;;;;;;;;;19.43;54.38;100716.13;5144943;27;1143;-58
2021/09/11 11:36:09;;;;;;;;;;;;;;;20.02;56.54;100714.00;5147604;27;1889;-57
2021/09/11 11:38:35;;;;;;;;;;;;;;;20.59;56.95;100713.91;5154194;27;799;-58
2021/09/11 11:41:04;;;;;;;;;;;;;;;20.94;57.30;100710.84;5153794;27;830;-43
2021/09/11 11:43:33;;;;;;;;;;;;;;;21.25;57.12;100718.56;5151531;27;1488;-43
2021/09/11 11:45:58;;;;;;;;;;;;;;;21.53;56.40;100713.84;5133312;27;951;-58
2021/09/11 11:48:24;;;;;;;;;;;;;;;21.41;56.76;100711.59;5141884;27;882;-59
2021/09/11 11:50:49;;;;;;;;;;;;;;;21.26;56.75;100709.94;5122352;27;810;-57
2021/09/11 11:53:15;;;;;;;;;;;;;;;20.78;55.87;100699.28;5135272;27;755;-43
2021/09/11 11:55:44;;;;;;;;;;;;;;;20.39;54.25;100709.56;5144086;27;1917;-58
2021/09/11 11:58:12;;;;;;;;;;;;;;;19.99;52.91;100704.38;5156397;27;814;-45
2021/09/11 12:00:38;;;;;;;;;;;;;;;19.65;51.40;100701.78;5127872;27;944;-42
2021/09/11 12:03:03;;;;;;;;;;;;;;;19.13;51.23;100690.56;5143554;27;763;-58
2021/09/11 12:05:29;;;;;;;;;;;;;;;18.98;50.51;100686.88;5141294;27;902;-44
2021/09/11 12:07:58;;;;;;;;;;;;;;;18.75;51.45;100696.69;5142265;27;752;-60
2021/09/11 12:10:25;;;;;;;;;;;;;;;19.25;52.27;100699.25;5136368;27;1140;-57
2021/09/11 12:12:52;;;;;;;;;;;;;;;19.69;54.30;100694.56;5142822;27;864;-63
2021/09/11 12:15:21;;;;;;;;;;;;;;;20.27;56.05;100695.38;5126824;27;1971;-52
2021/09/11 12:17:53;;;;;;;;;;;;;;;20.65;57.19;100687.00;5143426;27;1125;-46
2021/09/11 12:20:19;;;;;;;;;;;;;;;20.93;57.51;100693.47;5163375;27;790;-58
2021/09/11 12:22:44;;;;;;;;;;;;;;;20.99;57.91;100692.22;5144490;27;1560;-54
2021/09/11 12:25:10;;;;;;;;;;;;;;;21.39;56.95;100686.19;5141116;27;1448;-57
2021/09/11 12:27:35;;;;;;;;;;;;;;;21.39;56.89;100683.41;5142817;27;802;-63
2021/09/11 12:30:02;;;;;;;;;;;;;;;20.99;56.17;100683.94;5124923;27;969;-65
2021/09/11 12:32:27;;;;;;;;;;;;;;;20.16;54.85;100679.00;5135781;27;830;-59
2021/09/11 12:34:53;;;;;;;;;;;;;;;19.45;53.42;100670.59;5139456;27;1917;-58
2021/09/11 12:37:18;;;;;;;;;;;;;;;19.10;51.20;100664.41;5138905;27;815;-63
2021/09/11 12:39:44;;;;;;;;;;;;;;;18.75;49.50;100660.09;5141775;27;1465;-62
2021/09/11 12:42:13;;;;;;;;;;;;;;;18.61;48.52;100657.19;5148587;27;1503;-59
2021/09/11 12:44:39;;;;;;;;;;;;;;;18.52;48.60;100654.22;5131827;27;1345;-58